Time;durP1;ratioP1;P1;durP2;ratioP2;P2;SDS_P1;SDS_P2;PMS_P1;PMS_P2;Temp;Humidity;BMP_temperature;BMP_pressure;BME280_temperature;BME280_humidity;BME280_pressure;Samples;Min_cycle;Max_cycle;Signal;HPM_P1;HPM_P2
2021/07/07 00:08:59;;;;;;;1.08;0.50;;;21.70;66.00;;;;;;20822637;28;20025;-20
2021/07/07 00:18:59;;;;;;;1.15;0.57;;;21.70;65.90;;;;;;20821363;28;20598;-19
2021/07/07 00:29:00;;;;;;;2.30;0.40;;;21.70;65.90;;;;;;20821279;28;20467;-20
2021/07/07 00:39:01;;;;;;;1.15;0.38;;;21.70;65.90;;;;;;20819835;28;20045;-20
2021/07/07 00:49:02;;;;;;;4.10;0.75;;;21.70;65.90;;;;;;20819570;28;20084;-20
2021/07/07 00:59:04;;;;;;;2.05;0.50;;;21.70;65.80;;;;;;20819559;28;20034;-20
2021/07/07 01:09:04;;;;;;;2.85;0.65;;;21.60;65.80;;;;;;20819670;28;20083;-19
2021/07/07 01:19:05;;;;;;;2.05;0.85;;;21.60;65.70;;;;;;20818949;28;20029;-19
2021/07/07 01:29:06;;;;;;;4.22;0.60;;;21.70;65.80;;;;;;20818685;28;20028;-19
2021/07/07 01:39:08;;;;;;;1.27;0.60;;;21.70;65.70;;;;;;20819450;28;20044;-20
2021/07/07 01:49:09;;;;;;;1.35;0.60;;;21.60;65.70;;;;;;20831974;28;20558;-20
2021/07/07 01:59:09;;;;;;;4.00;0.68;;;21.60;65.60;;;;;;20832468;28;20025;-19
2021/07/07 02:09:10;;;;;;;0.95;0.57;;;21.60;65.60;;;;;;20832034;28;20052;-19
2021/07/07 02:19:11;;;;;;;1.33;0.50;;;21.60;65.70;;;;;;20830969;28;20540;-19
2021/07/07 02:29:12;;;;;;;1.27;0.60;;;21.60;65.60;;;;;;20823651;28;20041;-23
2021/07/07 02:39:13;;;;;;;1.55;0.52;;;21.60;65.50;;;;;;20842676;28;20033;-20
2021/07/07 02:49:13;;;;;;;1.70;0.50;;;21.60;65.60;;;;;;20840472;28;20037;-20
2021/07/07 02:59:14;;;;;;;2.10;0.60;;;21.60;65.70;;;;;;20821823;28;20476;-20
2021/07/07 03:09:15;;;;;;;1.17;0.50;;;21.60;65.50;;;;;;20836289;28;20029;-20
2021/07/07 03:19:15;;;;;;;2.97;0.90;;;21.60;65.50;;;;;;20826066;28;20061;-20
2021/07/07 03:29:16;;;;;;;1.60;0.70;;;21.60;65.50;;;;;;20824368;28;20056;-20
2021/07/07 03:39:16;;;;;;;3.58;0.70;;;21.50;65.50;;;;;;20823403;28;20052;-19
2021/07/07 03:49:17;;;;;;;1.30;0.50;;;21.60;65.50;;;;;;20822763;28;20032;-18
2021/07/07 03:59:17;;;;;;;2.55;0.55;;;21.60;65.60;;;;;;20821731;28;20021;-18
2021/07/07 04:09:19;;;;;;;4.93;1.00;;;21.60;65.50;;;;;;20821965;28;21446;-20
2021/07/07 04:19:20;;;;;;;3.38;0.60;;;21.60;65.40;;;;;;20816602;28;20042;-21
2021/07/07 04:29:20;;;;;;;4.35;1.42;;;21.50;65.30;;;;;;20772867;28;20519;-19
2021/07/07 04:39:21;;;;;;;2.10;0.80;;;21.50;65.30;;;;;;20785459;28;20029;-20
2021/07/07 04:49:21;;;;;;;3.22;0.63;;;21.50;65.20;;;;;;20782562;28;20111;-20
2021/07/07 04:59:22;;;;;;;4.35;1.23;;;21.50;65.10;;;;;;20841006;28;20067;-20
2021/07/07 05:09:22;;;;;;;5.00;0.70;;;21.50;65.10;;;;;;20833721;28;20492;-20
2021/07/07 05:19:23;;;;;;;3.67;0.80;;;21.50;65.00;;;;;;20839094;28;20034;-20
2021/07/07 05:29:23;;;;;;;2.47;0.73;;;21.50;64.90;;;;;;20834053;28;20060;-20
2021/07/07 05:39:24;;;;;;;3.55;1.15;;;21.50;64.90;;;;;;20831795;28;20481;-20
2021/07/07 05:49:25;;;;;;;7.03;1.40;;;21.50;64.80;;;;;;20803930;28;20025;-20
2021/07/07 05:59:26;;;;;;;17.15;1.65;;;21.60;65.10;;;;;;20832605;28;20041;-20
2021/07/07 06:09:26;;;;;;;7.00;1.77;;;21.60;65.20;;;;;;20832187;28;20021;-20
2021/07/07 06:19:27;;;;;;;14.35;1.90;;;21.60;65.20;;;;;;20830578;28;20487;-20
2021/07/07 06:29:27;;;;;;;19.23;3.03;;;21.60;65.30;;;;;;20829820;28;20030;-20
2021/07/07 06:39:28;;;;;;;8.25;2.97;;;21.60;65.30;;;;;;20833008;28;20506;-19
2021/07/07 06:49:28;;;;;;;7.75;2.13;;;21.60;65.20;;;;;;20829306;28;20408;-21
2021/07/07 06:59:29;;;;;;;12.45;2.88;;;21.60;65.30;;;;;;20829083;28;20033;-21
2021/07/07 07:09:30;;;;;;;13.32;2.40;;;21.60;65.40;;;;;;20827633;28;20108;-19
2021/07/07 07:19:30;;;;;;;8.52;1.67;;;21.70;65.30;;;;;;20827657;28;20095;-19
2021/07/07 07:29:31;;;;;;;6.63;1.90;;;21.60;65.30;;;;;;20826664;28;20436;-20
2021/07/07 07:39:49;;;;;;;7.70;1.75;;;21.60;65.40;;;;;;20818106;28;20441;-21
2021/07/07 07:49:50;;;;;;;9.60;2.17;;;21.70;65.50;;;;;;20823587;28;20447;-19
2021/07/07 07:59:51;;;;;;;11.35;2.08;;;21.70;65.50;;;;;;20823529;28;20370;-21
2021/07/07 08:09:52;;;;;;;5.35;1.52;;;21.60;65.50;;;;;;20824989;28;20021;-19
2021/07/07 08:19:53;;;;;;;6.07;1.23;;;21.70;65.60;;;;;;20823386;28;20057;-20
2021/07/07 08:29:54;;;;;;;2.72;1.25;;;21.70;65.70;;;;;;20819162;28;20482;-20
2021/07/07 08:39:55;;;;;;;6.00;1.65;;;21.70;65.70;;;;;;20818945;28;20112;-19
2021/07/07 08:49:55;;;;;;;6.88;1.77;;;21.70;65.80;;;;;;20820038;28;20064;-21
2021/07/07 08:59:56;;;;;;;4.32;1.80;;;21.70;66.00;;;;;;20816879;28;20029;-20
2021/07/07 09:09:56;;;;;;;5.57;2.00;;;21.70;65.50;;;;;;20817629;28;20044;-20
2021/07/07 09:19:57;;;;;;;5.82;2.00;;;21.70;66.20;;;;;;20819787;28;20030;-20
2021/07/07 09:30:04;;;;;;;4.63;1.50;;;21.80;66.20;;;;;;20815572;28;20042;-20
2021/07/07 09:40:08;;;;;;;5.57;1.60;;;21.80;66.00;;;;;;20808113;28;20430;-20
2021/07/07 09:50:11;;;;;;;5.88;1.98;;;21.80;66.00;;;;;;20805173;28;20067;-20
2021/07/07 10:00:18;;;;;;;6.57;2.08;;;21.80;66.00;;;;;;20811132;28;20455;-20
2021/07/07 10:10:19;;;;;;;5.60;1.70;;;21.80;65.90;;;;;;20813653;28;20036;-20
2021/07/07 10:20:20;;;;;;;5.00;2.03;;;21.90;65.80;;;;;;20826235;28;20404;-20
2021/07/07 10:30:22;;;;;;;4.15;2.13;;;21.80;65.80;;;;;;20830129;28;20021;-20
2021/07/07 10:40:28;;;;;;;4.32;2.30;;;21.90;65.70;;;;;;20825713;28;20041;-20
2021/07/07 10:50:34;;;;;;;3.92;1.63;;;21.90;65.60;;;;;;20828394;28;20105;-20
2021/07/07 11:00:40;;;;;;;4.03;1.23;;;21.90;65.50;;;;;;20830618;28;20033;-20
2021/07/07 11:10:57;;;;;;;6.30;1.75;;;21.90;64.80;;;;;;20822637;28;20079;-20
2021/07/07 11:21:04;;;;;;;6.10;1.88;;;21.90;64.90;;;;;;20827779;28;20026;-19
2021/07/07 11:31:05;;;;;;;5.22;1.52;;;21.90;62.80;;;;;;20827343;28;20611;-20
2021/07/07 11:41:05;;;;;;;3.72;1.05;;;22.20;62.80;;;;;;20822104;28;20071;-19
2021/07/07 11:51:14;;;;;;;6.53;1.50;;;22.10;62.30;;;;;;20835306;28;20053;-20
2021/07/07 12:01:22;;;;;;;7.93;2.80;;;22.00;60.60;;;;;;20825002;28;20037;-21
2021/07/07 12:11:23;;;;;;;3.05;1.60;;;22.00;60.00;;;;;;20840412;28;20133;-20
2021/07/07 12:21:24;;;;;;;7.30;1.45;;;22.00;59.70;;;;;;20827301;28;20025;-20
2021/07/07 12:31:27;;;;;;;5.22;1.50;;;22.00;59.20;;;;;;20832677;28;20037;-21
2021/07/07 12:41:56;;;;;;;4.13;1.25;;;22.10;59.10;;;;;;20806973;28;20033;-21
2021/07/07 12:52:30;;;;;;;4.88;2.03;;;22.00;58.60;;;;;;20811603;28;20042;-21
2021/07/07 13:02:31;;;;;;;8.85;1.50;;;22.10;58.90;;;;;;20809092;28;20033;-20
2021/07/07 13:12:31;;;;;;;5.90;1.63;;;22.10;58.10;;;;;;20818400;28;20037;-19
2021/07/07 13:22:32;;;;;;;5.35;2.08;;;22.10;58.60;;;;;;20794853;28;20033;-20
2021/07/07 13:32:32;;;;;;;4.35;1.35;;;22.10;59.80;;;;;;20791874;28;20499;-20
2021/07/07 13:42:35;;;;;;;16.50;1.70;;;22.10;58.90;;;;;;20812065;28;20029;-20
2021/07/07 13:52:35;;;;;;;5.28;2.10;;;22.10;59.10;;;;;;20831250;28;20388;-20
2021/07/07 14:02:36;;;;;;;6.20;1.27;;;22.10;58.60;;;;;;20832703;28;20026;-20
2021/07/07 14:12:36;;;;;;;6.97;1.40;;;22.10;58.60;;;;;;20831085;28;20032;-21
2021/07/07 14:22:37;;;;;;;5.40;1.50;;;22.10;58.20;;;;;;20827787;28;20083;-20
2021/07/07 14:32:38;;;;;;;26.80;4.20;;;22.10;58.60;;;;;;20798616;28;20506;-21
2021/07/07 14:42:38;;;;;;;10.55;2.67;;;22.10;60.20;;;;;;20807958;28;20061;-20
2021/07/07 14:52:39;;;;;;;15.40;3.83;;;22.20;59.60;;;;;;20825796;28;20025;-20
2021/07/07 15:02:40;;;;;;;9.70;2.85;;;22.40;58.90;;;;;;20828000;28;20026;-20
2021/07/07 15:12:40;;;;;;;25.38;3.80;;;22.40;58.60;;;;;;20827463;28;20025;-20
2021/07/07 15:22:41;;;;;;;25.33;4.13;;;22.30;58.70;;;;;;20826402;28;20061;-20
2021/07/07 15:32:41;;;;;;;21.58;3.63;;;22.50;58.00;;;;;;20828345;28;20819;-20
2021/07/07 15:42:42;;;;;;;40.17;4.83;;;22.60;58.20;;;;;;20825086;28;20029;-20
2021/07/07 15:52:43;;;;;;;19.20;3.73;;;22.50;59.20;;;;;;20826081;28;20494;-21
2021/07/07 16:02:43;;;;;;;12.50;2.73;;;22.40;57.50;;;;;;20804078;28;20590;-21
2021/07/07 16:12:44;;;;;;;12.27;2.60;;;22.60;56.80;;;;;;20832517;28;20552;-21
2021/07/07 16:22:45;;;;;;;10.63;2.22;;;22.60;56.80;;;;;;20831301;28;21037;-20
2021/07/07 16:32:45;;;;;;;21.05;2.85;;;22.60;57.10;;;;;;20824461;28;20025;-20
2021/07/07 16:42:46;;;;;;;19.87;2.93;;;22.70;56.90;;;;;;20824627;28;20041;-21
2021/07/07 16:52:47;;;;;;;16.85;2.03;;;22.70;57.10;;;;;;20819739;28;20034;-20
2021/07/07 17:02:47;;;;;;;19.55;3.10;;;22.70;56.10;;;;;;20819306;28;20033;-20
2021/07/07 17:12:48;;;;;;;16.50;2.97;;;22.60;56.80;;;;;;20824339;28;20029;-21
2021/07/07 17:22:49;;;;;;;16.80;2.40;;;22.60;57.80;;;;;;20835128;28;20060;-20
2021/07/07 17:32:49;;;;;;;21.73;2.53;;;22.50;57.70;;;;;;20834040;28;20095;-20
2021/07/07 17:42:50;;;;;;;18.85;3.38;;;22.50;58.00;;;;;;20833073;28;20037;-21
2021/07/07 17:52:50;;;;;;;9.73;2.90;;;22.70;58.20;;;;;;20832609;28;20044;-20
2021/07/07 18:02:51;;;;;;;9.45;2.97;;;22.80;58.10;;;;;;20832416;28;20476;-20
2021/07/07 18:12:51;;;;;;;16.48;2.70;;;22.80;58.20;;;;;;20843914;28;20044;-19
2021/07/07 18:22:52;;;;;;;19.27;3.78;;;22.70;59.20;;;;;;20834187;28;20400;-19
2021/07/07 18:32:54;;;;;;;9.82;2.67;;;22.70;60.90;;;;;;20830216;28;20022;-20
2021/07/07 18:42:55;;;;;;;9.40;2.53;;;22.70;62.00;;;;;;20832437;28;20433;-20
2021/07/07 18:52:56;;;;;;;9.55;3.75;;;22.80;62.90;;;;;;20842444;28;20030;-19
2021/07/07 19:02:56;;;;;;;10.15;2.35;;;22.70;63.20;;;;;;20830054;28;20029;-21
2021/07/07 19:12:57;;;;;;;12.13;3.03;;;22.60;64.10;;;;;;20825936;28;20029;-21
2021/07/07 19:22:58;;;;;;;36.17;4.50;;;22.50;64.40;;;;;;20828899;28;20450;-21
2021/07/07 19:32:58;;;;;;;14.30;3.13;;;22.60;65.50;;;;;;20807822;28;20045;-20
2021/07/07 19:42:59;;;;;;;10.05;2.60;;;22.50;65.20;;;;;;20815913;28;20032;-20
2021/07/07 19:53:00;;;;;;;19.67;3.30;;;22.50;65.50;;;;;;20816966;28;20065;-21
2021/07/07 20:03:01;;;;;;;10.80;3.93;;;22.50;66.20;;;;;;20826890;28;20033;-21
2021/07/07 20:13:06;;;;;;;10.77;3.53;;;22.50;66.50;;;;;;20813528;28;20025;-21
2021/07/07 20:23:08;;;;;;;12.73;3.15;;;22.40;66.70;;;;;;20816322;28;20448;-21
2021/07/07 20:33:09;;;;;;;11.03;2.40;;;22.50;66.50;;;;;;20768670;28;20091;-20
2021/07/07 20:43:09;;;;;;;7.60;2.83;;;22.40;66.60;;;;;;20738548;28;21034;-20
2021/07/07 20:53:10;;;;;;;5.07;2.30;;;22.40;66.60;;;;;;20738183;28;20114;-20
2021/07/07 21:03:11;;;;;;;8.70;2.35;;;22.40;66.50;;;;;;20804729;28;20839;-21
2021/07/07 21:13:11;;;;;;;5.37;2.77;;;22.50;66.50;;;;;;20817714;28;20116;-20
2021/07/07 21:23:12;;;;;;;7.32;2.85;;;22.50;66.40;;;;;;20816757;28;21094;-20
2021/07/07 21:33:12;;;;;;;4.55;2.40;;;22.40;66.40;;;;;;20800348;28;20045;-21
2021/07/07 21:43:13;;;;;;;5.78;2.55;;;22.40;66.30;;;;;;20815910;28;20049;-20
2021/07/07 21:53:14;;;;;;;4.90;2.53;;;22.40;66.40;;;;;;20816419;28;20388;-19
2021/07/07 22:03:14;;;;;;;5.70;2.30;;;22.50;66.60;;;;;;20824939;28;20113;-20
2021/07/07 22:13:16;;;;;;;7.07;2.53;;;22.40;66.50;;;;;;20829624;22;20492;-19
2021/07/07 22:23:16;;;;;;;5.20;2.10;;;22.30;66.60;;;;;;20809782;28;20493;-20
2021/07/07 22:33:17;;;;;;;7.28;2.70;;;22.40;67.20;;;;;;20783094;28;20100;-21
2021/07/07 22:43:18;;;;;;;6.03;2.60;;;22.30;66.10;;;;;;20822975;28;20030;-21
2021/07/07 22:53:20;;;;;;;3.67;2.03;;;22.20;66.80;;;;;;20825461;28;20034;-20
2021/07/07 23:03:22;;;;;;;10.57;2.05;;;22.10;66.40;;;;;;20827002;28;20025;-20
2021/07/07 23:13:23;;;;;;;6.63;2.13;;;22.10;66.10;;;;;;20820166;28;20073;-21
2021/07/07 23:23:23;;;;;;;8.45;1.85;;;22.00;66.10;;;;;;20819190;28;20049;-20
2021/07/07 23:33:24;;;;;;;7.15;2.22;;;22.10;66.10;;;;;;20826933;28;20499;-21
2021/07/07 23:43:25;;;;;;;6.00;2.05;;;22.00;66.10;;;;;;20824181;28;20112;-20
2021/07/07 23:53:25;;;;;;;4.95;2.08;;;22.10;66.00;;;;;;20823603;28;20033;-20
